Roy, Utah
Current Conditions -  °F | °C
As of 6:53 AM on Wednesday 28 Jan 2015 (Local Time) from KOGD Reporting Station
Overcast Overcast  
Wind Chill: 41°   Ceiling: 3600
Heat Index: 41°   Visibility: 10mi
Dew Point: 39°   Wind: 3mph
Humidity: 93%   Direction: 230°SW
Pressure: 30.23"   Gusts: NA
Location:  41.17°N, 112.02°W
Report Text: KOGD 281353Z 23003KT 10SM OVC036 05/04 A3023 RMK AO2 RAE1259 SLP230 P0000 T00500039
Loading
Personal Weather Stations






























Interactive Weather Map New forecast layout! Learn more

10-Day Weather Forecast

Advertisements
Track Severe Weather on mobile